Time;durP1;ratioP1;P1;durP2;ratioP2;P2;SDS_P1;SDS_P2;PMS_P1;PMS_P2;Temp;Humidity;BMP_temperature;BMP_pressure;BME280_temperature;BME280_humidity;BME280_pressure;Samples;Min_cycle;Max_cycle;Signal;HPM_P1;HPM_P2
2023/01/23 00:01:50;;;;;;;13.90;6.72;;;3.40;99.90;;;;;;5073302;28;20043;-69
2023/01/23 00:04:16;;;;;;;14.95;7.45;;;3.40;99.90;;;;;;5074333;28;20036;-69
2023/01/23 00:06:42;;;;;;;17.30;7.82;;;3.30;99.90;;;;;;5073459;28;20520;-69
2023/01/23 00:09:08;;;;;;;17.13;8.10;;;3.40;99.90;;;;;;5073081;28;20074;-69
2023/01/23 00:11:34;;;;;;;12.05;7.90;;;3.30;99.90;;;;;;5073111;28;20093;-69
2023/01/23 00:14:01;;;;;;;15.65;8.05;;;3.30;99.90;;;;;;5073191;28;20044;-68
2023/01/23 00:16:30;;;;;;;15.35;8.00;;;3.30;99.90;;;;;;5074475;28;20044;-68
2023/01/23 00:18:56;;;;;;;21.50;7.40;;;3.30;99.90;;;;;;5073132;28;20044;-68
2023/01/23 00:21:25;;;;;;;12.98;6.72;;;3.40;99.90;;;;;;5073156;28;20041;-68
2023/01/23 00:23:52;;;;;;;12.82;7.10;;;3.40;99.90;;;;;;5073109;28;20040;-68
2023/01/23 00:26:21;;;;;;;16.95;7.85;;;3.40;99.90;;;;;;5072796;28;20047;-68
2023/01/23 00:28:47;;;;;;;19.13;8.13;;;3.40;99.90;;;;;;5072952;28;20421;-68
2023/01/23 00:31:18;;;;;;;14.98;7.63;;;3.40;99.90;;;;;;5072687;28;20119;-68
2023/01/23 00:33:44;;;;;;;17.48;8.73;;;3.40;99.90;;;;;;5072879;28;20181;-68
2023/01/23 00:36:12;;;;;;;13.45;8.00;;;3.40;99.90;;;;;;5072621;28;20541;-68
2023/01/23 00:38:38;;;;;;;16.50;7.70;;;3.40;99.90;;;;;;5074305;28;20481;-68
2023/01/23 00:41:04;;;;;;;16.40;8.43;;;3.40;99.90;;;;;;5072488;28;20044;-68
2023/01/23 00:43:30;;;;;;;13.32;7.65;;;3.40;99.90;;;;;;5072510;28;20063;-68
2023/01/23 00:45:56;;;;;;;15.68;8.88;;;3.40;99.90;;;;;;5072437;28;20044;-68
2023/01/23 00:48:22;;;;;;;18.70;8.05;;;3.30;99.90;;;;;;5072641;28;20059;-68
2023/01/23 00:50:47;;;;;;;15.90;7.10;;;3.30;99.90;;;;;;5073429;28;20494;-68
2023/01/23 00:53:13;;;;;;;15.25;7.53;;;3.30;99.90;;;;;;5072558;28;20390;-68
2023/01/23 00:55:40;;;;;;;14.95;8.07;;;3.30;99.90;;;;;;5072171;28;20076;-68
2023/01/23 00:58:07;;;;;;;16.13;8.85;;;3.30;99.90;;;;;;5072028;28;20086;-68
2023/01/23 01:00:33;;;;;;;16.35;8.15;;;3.30;99.90;;;;;;5072136;28;20040;-68
2023/01/23 01:02:58;;;;;;;15.90;7.57;;;3.30;99.90;;;;;;5072482;28;20032;-68
2023/01/23 01:05:24;;;;;;;16.50;7.88;;;3.30;99.90;;;;;;5072073;28;20044;-68
2023/01/23 01:07:50;;;;;;;15.77;8.05;;;3.40;99.90;;;;;;5072121;28;20040;-68
2023/01/23 01:10:16;;;;;;;13.68;7.93;;;3.30;99.90;;;;;;5071998;28;20040;-68
2023/01/23 01:12:41;;;;;;;15.70;8.02;;;3.30;99.90;;;;;;5073274;28;20094;-68
2023/01/23 01:15:08;;;;;;;14.38;8.13;;;3.40;99.90;;;;;;5071919;28;20044;-68
2023/01/23 01:17:34;;;;;;;17.10;8.43;;;3.30;99.90;;;;;;5071942;28;20037;-68
2023/01/23 01:20:03;;;;;;;12.45;8.23;;;3.40;99.90;;;;;;5071932;28;20047;-68
2023/01/23 01:22:28;;;;;;;22.83;9.02;;;3.30;99.90;;;;;;5071918;28;20041;-68
2023/01/23 01:24:56;;;;;;;13.40;7.93;;;3.40;99.90;;;;;;5072139;28;20040;-68
2023/01/23 01:27:22;;;;;;;18.23;9.15;;;3.40;99.90;;;;;;5071901;28;20074;-68
2023/01/23 01:29:48;;;;;;;19.33;9.30;;;3.30;99.90;;;;;;5072026;28;20048;-68
2023/01/23 01:32:13;;;;;;;14.35;8.13;;;3.30;99.90;;;;;;5073088;28;20043;-68
2023/01/23 01:34:39;;;;;;;18.98;9.35;;;3.40;99.90;;;;;;5071886;28;20124;-68
2023/01/23 01:37:05;;;;;;;15.45;8.00;;;3.30;99.90;;;;;;5071762;28;20409;-68
2023/01/23 01:39:30;;;;;;;14.60;8.68;;;3.30;99.90;;;;;;5071664;28;20131;-68
2023/01/23 01:41:56;;;;;;;14.60;9.10;;;3.40;99.90;;;;;;5071753;28;20119;-68
2023/01/23 01:44:23;;;;;;;16.20;8.38;;;3.30;99.90;;;;;;5072955;28;20040;-68
2023/01/23 01:46:49;;;;;;;16.00;8.52;;;3.30;99.90;;;;;;5071711;28;20044;-68
2023/01/23 01:49:18;;;;;;;16.98;9.75;;;3.30;99.90;;;;;;5071756;28;20119;-68
2023/01/23 01:51:58;;;;;;;17.38;9.25;;;3.30;99.90;;;;;;5071939;28;20493;-68
2023/01/23 01:54:33;;;;;;;18.15;9.73;;;3.30;99.90;;;;;;5071597;28;20047;-68
2023/01/23 01:57:10;;;;;;;19.17;9.68;;;3.30;99.90;;;;;;5071849;28;20115;-68
2023/01/23 01:59:44;;;;;;;14.30;8.68;;;3.30;99.90;;;;;;5071477;28;20046;-68
2023/01/23 02:02:34;;;;;;;12.52;8.48;;;3.30;99.90;;;;;;5071550;28;20036;-68
2023/01/23 02:05:04;;;;;;;21.25;9.40;;;3.30;99.90;;;;;;5071566;28;20044;-68
2023/01/23 02:07:36;;;;;;;15.82;9.73;;;3.30;99.90;;;;;;5071771;28;20056;-68
2023/01/23 02:10:04;;;;;;;13.75;8.40;;;3.30;99.90;;;;;;5071393;28;20049;-68
2023/01/23 02:12:33;;;;;;;16.88;9.65;;;3.30;99.90;;;;;;5076100;28;20374;-68
2023/01/23 02:14:59;;;;;;;19.10;9.13;;;3.30;99.90;;;;;;5075185;28;20503;-68
2023/01/23 02:17:24;;;;;;;16.23;8.65;;;3.30;99.90;;;;;;5075250;28;20063;-68
2023/01/23 02:19:59;;;;;;;16.05;8.63;;;3.30;99.90;;;;;;5075419;28;20041;-68
2023/01/23 02:22:28;;;;;;;22.20;9.73;;;3.30;99.90;;;;;;5075485;28;20049;-68
2023/01/23 02:25:03;;;;;;;15.75;8.63;;;3.30;99.90;;;;;;5075168;28;20071;-68
2023/01/23 02:27:28;;;;;;;14.70;8.52;;;3.30;99.90;;;;;;5075143;28;20048;-68
2023/01/23 02:29:55;;;;;;;18.42;9.52;;;3.40;99.90;;;;;;5074938;28;20041;-68
2023/01/23 02:32:23;;;;;;;13.40;8.68;;;3.30;99.90;;;;;;5076200;28;20040;-68
2023/01/23 02:34:50;;;;;;;13.65;8.55;;;3.30;99.90;;;;;;5074866;28;20040;-68
2023/01/23 02:37:17;;;;;;;14.55;8.35;;;3.30;99.90;;;;;;5075136;28;20036;-68
2023/01/23 02:39:44;;;;;;;17.25;8.48;;;3.30;99.90;;;;;;5074781;28;20435;-68
2023/01/23 02:42:10;;;;;;;15.05;8.52;;;3.40;99.90;;;;;;5074811;28;20044;-68
2023/01/23 02:44:35;;;;;;;14.82;9.07;;;3.40;99.90;;;;;;5075003;28;20139;-68
2023/01/23 02:47:06;;;;;;;17.48;9.10;;;3.30;99.90;;;;;;5075952;28;20375;-68
2023/01/23 02:49:32;;;;;;;16.17;8.50;;;3.30;99.90;;;;;;5074463;28;20513;-68
2023/01/23 02:51:58;;;;;;;17.25;8.32;;;3.40;99.90;;;;;;5074657;28;20055;-68
2023/01/23 02:54:24;;;;;;;14.88;8.55;;;3.30;99.90;;;;;;5074813;28;20044;-68
2023/01/23 02:56:51;;;;;;;19.50;8.93;;;3.30;99.90;;;;;;5076070;28;20080;-68
2023/01/23 03:02:01;;;;;;;20.25;9.02;;;3.40;99.90;;;;;;5074488;28;20080;-68
2023/01/23 03:04:26;;;;;;;13.77;9.00;;;3.40;99.90;;;;;;5074425;28;20084;-68
2023/01/23 03:06:52;;;;;;;16.65;9.35;;;3.40;99.90;;;;;;5074383;28;20055;-68
2023/01/23 03:09:18;;;;;;;16.52;9.50;;;3.40;99.90;;;;;;5074303;28;20046;-68
2023/01/23 03:11:44;;;;;;;16.45;8.85;;;3.40;99.90;;;;;;5074286;28;20036;-68
2023/01/23 03:14:13;;;;;;;19.48;9.30;;;3.40;99.90;;;;;;5075453;28;20489;-68
2023/01/23 03:16:40;;;;;;;19.95;9.73;;;3.40;99.90;;;;;;5074234;28;20033;-68
2023/01/23 03:19:08;;;;;;;16.20;9.32;;;3.30;99.90;;;;;;5074099;28;20071;-68
2023/01/23 03:21:41;;;;;;;14.60;8.50;;;3.30;99.90;;;;;;5075280;28;20066;-68
2023/01/23 03:24:08;;;;;;;16.30;9.25;;;3.30;99.90;;;;;;5074135;28;20047;-68
2023/01/23 03:26:36;;;;;;;16.55;9.57;;;3.40;99.90;;;;;;5074019;28;20043;-68
2023/01/23 03:31:46;;;;;;;16.55;9.07;;;3.30;99.90;;;;;;5073919;28;20056;-68
2023/01/23 03:34:11;;;;;;;21.00;9.60;;;3.30;99.90;;;;;;5073772;28;20040;-68
2023/01/23 03:36:37;;;;;;;17.85;9.00;;;3.30;99.90;;;;;;5075631;28;20037;-68
2023/01/23 03:41:49;;;;;;;16.48;8.50;;;3.40;99.90;;;;;;5073752;28;20048;-68
2023/01/23 03:44:17;;;;;;;16.50;9.23;;;3.30;99.90;;;;;;5073700;28;20049;-68
2023/01/23 03:46:44;;;;;;;13.73;9.32;;;3.30;99.90;;;;;;5073855;28;20059;-68
2023/01/23 03:49:10;;;;;;;17.98;9.38;;;3.40;99.90;;;;;;5073498;28;20040;-68
2023/01/23 03:51:35;;;;;;;19.45;11.63;;;3.30;99.90;;;;;;5073677;28;20054;-68
2023/01/23 03:54:01;;;;;;;20.05;10.65;;;3.30;99.90;;;;;;5073423;28;20409;-68
2023/01/23 03:56:26;;;;;;;15.40;9.35;;;3.40;99.90;;;;;;5073405;28;20084;-68
2023/01/23 03:58:52;;;;;;;20.42;10.43;;;3.30;99.90;;;;;;5074323;28;20040;-68
2023/01/23 04:01:18;;;;;;;16.98;9.70;;;3.30;99.90;;;;;;5073571;28;20036;-68
2023/01/23 04:03:43;;;;;;;17.55;9.60;;;3.30;99.90;;;;;;5073295;28;20513;-68
2023/01/23 04:06:09;;;;;;;12.60;8.93;;;3.40;99.90;;;;;;5073239;28;20040;-68
2023/01/23 04:08:34;;;;;;;18.48;10.43;;;3.40;99.90;;;;;;5073122;28;20267;-68
2023/01/23 04:11:05;;;;;;;20.02;10.63;;;3.30;99.90;;;;;;5073146;28;20038;-68
2023/01/23 04:13:31;;;;;;;15.55;9.77;;;3.30;99.90;;;;;;5073102;28;20048;-68
2023/01/23 04:15:57;;;;;;;16.23;9.73;;;3.30;99.90;;;;;;5074464;28;20040;-68
2023/01/23 04:18:23;;;;;;;19.30;10.57;;;3.30;99.90;;;;;;5073245;28;20134;-68
2023/01/23 04:20:48;;;;;;;17.13;9.88;;;3.30;99.90;;;;;;5072877;28;20481;-68
2023/01/23 04:23:14;;;;;;;16.45;9.98;;;3.30;99.90;;;;;;5074137;28;20040;-68
2023/01/23 04:25:40;;;;;;;17.67;9.43;;;3.30;99.90;;;;;;5072832;28;20048;-68
2023/01/23 04:28:05;;;;;;;19.23;10.57;;;3.30;99.90;;;;;;5073075;28;20047;-68
2023/01/23 04:30:31;;;;;;;14.65;10.38;;;3.30;99.90;;;;;;5072691;28;20458;-68
2023/01/23 04:32:56;;;;;;;16.95;10.55;;;3.30;99.90;;;;;;5072398;28;20048;-68
2023/01/23 04:35:22;;;;;;;16.38;10.80;;;3.30;99.90;;;;;;5072388;28;20124;-68
2023/01/23 04:37:47;;;;;;;17.83;10.75;;;3.30;99.90;;;;;;5072605;28;20067;-68
2023/01/23 04:40:13;;;;;;;20.92;10.25;;;3.20;99.90;;;;;;5073755;28;20083;-68
2023/01/23 04:42:39;;;;;;;19.73;10.57;;;3.20;99.90;;;;;;5072775;28;20044;-68
2023/01/23 04:45:06;;;;;;;21.10;11.27;;;3.30;99.90;;;;;;5072495;28;20482;-68
2023/01/23 04:47:32;;;;;;;17.58;10.68;;;3.20;99.90;;;;;;5072428;28;20045;-68
2023/01/23 04:49:57;;;;;;;14.00;10.80;;;3.20;99.90;;;;;;5072477;28;20118;-68
2023/01/23 04:52:23;;;;;;;20.63;11.60;;;3.30;99.90;;;;;;5072378;28;20040;-68
2023/01/23 04:54:49;;;;;;;17.40;10.20;;;3.30;99.90;;;;;;5073467;28;20037;-68
2023/01/23 04:57:14;;;;;;;21.60;11.35;;;3.30;99.90;;;;;;5073570;28;20540;-68
2023/01/23 04:59:40;;;;;;;16.85;10.10;;;3.20;99.90;;;;;;5072181;28;20401;-68
2023/01/23 05:02:06;;;;;;;16.02;10.88;;;3.30;99.90;;;;;;5072157;28;20044;-68
2023/01/23 05:04:31;;;;;;;15.98;10.30;;;3.20;99.90;;;;;;5072458;28;20044;-68
2023/01/23 05:06:57;;;;;;;17.90;11.10;;;3.30;99.90;;;;;;5072164;28;20409;-68
2023/01/23 05:09:22;;;;;;;18.55;10.77;;;3.30;99.90;;;;;;5072303;28;20083;-68
2023/01/23 05:11:48;;;;;;;20.13;10.60;;;3.20;99.90;;;;;;5073585;28;20499;-68
2023/01/23 05:14:13;;;;;;;19.63;10.52;;;3.20;99.90;;;;;;5072218;28;20095;-68
2023/01/23 05:16:39;;;;;;;18.35;10.45;;;3.20;99.90;;;;;;5072307;28;20035;-68
2023/01/23 05:19:04;;;;;;;15.00;11.38;;;3.30;99.90;;;;;;5073140;28;20563;-68
2023/01/23 05:21:30;;;;;;;16.92;11.52;;;3.20;99.90;;;;;;5073210;28;20037;-68
2023/01/23 05:23:56;;;;;;;20.55;12.13;;;3.20;99.90;;;;;;5072151;28;20040;-68
2023/01/23 05:26:21;;;;;;;22.15;12.32;;;3.20;99.90;;;;;;5071909;28;20040;-68
2023/01/23 05:28:47;;;;;;;16.08;11.23;;;3.20;99.90;;;;;;5072077;28;20048;-68
2023/01/23 05:31:12;;;;;;;19.27;10.65;;;3.20;99.90;;;;;;5055175;28;20414;-68
2023/01/23 05:33:39;;;;;;;22.77;12.80;;;3.30;99.90;;;;;;5073338;28;20032;-68
2023/01/23 05:36:05;;;;;;;15.77;10.25;;;3.20;99.90;;;;;;5071729;28;20528;-68
2023/01/23 05:38:31;;;;;;;16.75;11.43;;;3.20;99.90;;;;;;5071687;28;20124;-68
2023/01/23 05:40:57;;;;;;;18.75;11.63;;;3.20;99.90;;;;;;5073291;28;20494;-68
2023/01/23 05:43:22;;;;;;;15.73;11.18;;;3.20;99.90;;;;;;5071731;28;20472;-68
2023/01/23 05:45:48;;;;;;;17.48;10.98;;;3.20;99.90;;;;;;5072887;28;20040;-68
2023/01/23 05:48:14;;;;;;;19.55;11.85;;;3.10;99.90;;;;;;5075901;28;20079;-68
2023/01/23 05:50:40;;;;;;;17.20;10.70;;;3.20;99.90;;;;;;5075662;28;20052;-68
2023/01/23 05:53:05;;;;;;;20.05;12.32;;;3.20;99.90;;;;;;5077580;28;20051;-68
2023/01/23 05:55:31;;;;;;;14.93;10.77;;;3.10;99.90;;;;;;5077229;28;20503;-68
2023/01/23 05:57:57;;;;;;;17.55;11.13;;;3.20;99.90;;;;;;5076934;28;20032;-68
2023/01/23 06:00:23;;;;;;;20.38;11.57;;;3.10;99.90;;;;;;5075573;28;20047;-68
2023/01/23 06:02:48;;;;;;;18.42;11.55;;;3.20;99.90;;;;;;5075587;28;20068;-68
2023/01/23 06:05:14;;;;;;;15.02;11.70;;;3.20;99.90;;;;;;5075818;28;20047;-68
2023/01/23 06:07:40;;;;;;;19.95;12.20;;;3.20;99.90;;;;;;5075516;28;20508;-68
2023/01/23 06:10:07;;;;;;;18.27;11.93;;;3.20;99.90;;;;;;5075694;28;20086;-68
2023/01/23 06:12:32;;;;;;;18.38;12.13;;;3.10;99.90;;;;;;5075480;28;20044;-68
2023/01/23 06:14:58;;;;;;;20.65;12.55;;;3.20;99.90;;;;;;5075437;28;20051;-68
2023/01/23 06:17:24;;;;;;;16.40;11.55;;;3.20;99.90;;;;;;5075574;28;20051;-68
2023/01/23 06:19:49;;;;;;;18.98;11.35;;;3.20;99.90;;;;;;5075193;28;20033;-68
2023/01/23 06:22:15;;;;;;;18.52;11.32;;;3.20;99.90;;;;;;5075238;28;20041;-68
2023/01/23 06:24:40;;;;;;;22.30;11.35;;;3.10;99.90;;;;;;5075421;28;20041;-68
2023/01/23 06:27:07;;;;;;;18.55;11.27;;;3.10;99.90;;;;;;5075150;28;20501;-68
2023/01/23 06:29:36;;;;;;;21.45;11.52;;;3.20;99.90;;;;;;5076476;28;20044;-68
2023/01/23 06:32:02;;;;;;;18.17;11.35;;;3.20;99.90;;;;;;5075071;28;20076;-68
2023/01/23 06:34:27;;;;;;;20.40;12.02;;;3.10;99.90;;;;;;5076134;28;20092;-68
2023/01/23 06:36:53;;;;;;;18.13;11.45;;;3.20;99.90;;;;;;5074924;28;20068;-68
2023/01/23 06:39:19;;;;;;;17.95;11.90;;;3.20;99.90;;;;;;5074816;28;20410;-68
2023/01/23 06:41:45;;;;;;;17.58;12.18;;;3.20;99.90;;;;;;5075103;28;20037;-68
2023/01/23 06:44:10;;;;;;;18.60;11.98;;;3.20;99.90;;;;;;5074807;28;20089;-68
2023/01/23 06:46:36;;;;;;;19.58;12.07;;;3.10;99.90;;;;;;5074757;28;20067;-68
2023/01/23 06:49:03;;;;;;;19.38;12.25;;;3.20;99.90;;;;;;5075880;28;20124;-68
2023/01/23 06:51:29;;;;;;;17.85;12.07;;;3.10;99.90;;;;;;5074897;28;20040;-69
2023/01/23 06:53:55;;;;;;;18.48;12.73;;;3.20;99.90;;;;;;5075681;28;20545;-68
2023/01/23 06:56:21;;;;;;;22.17;13.52;;;3.20;99.90;;;;;;5074156;28;20052;-68
2023/01/23 06:58:47;;;;;;;15.93;12.23;;;3.20;99.90;;;;;;5074738;28;20040;-68
2023/01/23 07:01:16;;;;;;;19.65;12.60;;;3.20;99.90;;;;;;5058060;28;20079;-68
2023/01/23 07:03:43;;;;;;;18.55;13.65;;;3.20;99.90;;;;;;5074497;28;20032;-68
2023/01/23 07:06:11;;;;;;;18.88;11.93;;;3.20;99.90;;;;;;5074446;28;20055;-68
2023/01/23 07:08:37;;;;;;;20.90;13.45;;;3.10;99.90;;;;;;5074560;28;20126;-68
2023/01/23 07:11:02;;;;;;;18.65;12.82;;;3.20;99.90;;;;;;5074364;28;20489;-68
2023/01/23 07:13:28;;;;;;;19.65;12.38;;;3.20;99.90;;;;;;5074229;28;20059;-68
2023/01/23 07:15:54;;;;;;;17.10;12.73;;;3.10;99.90;;;;;;5074130;28;20040;-68
2023/01/23 07:18:21;;;;;;;16.77;13.00;;;3.10;99.90;;;;;;5074202;28;20543;-68
2023/01/23 07:20:46;;;;;;;16.13;11.18;;;3.20;99.90;;;;;;5074033;28;20040;-68
2023/01/23 07:23:12;;;;;;;18.25;12.27;;;3.10;99.90;;;;;;5074115;28;20039;-68
2023/01/23 07:25:38;;;;;;;17.95;12.05;;;3.20;99.90;;;;;;5075570;28;20039;-68
2023/01/23 07:28:04;;;;;;;17.05;11.32;;;3.10;99.90;;;;;;5074303;28;20097;-68
2023/01/23 07:30:31;;;;;;;18.45;11.45;;;3.20;99.90;;;;;;5073899;28;20056;-68
2023/01/23 07:32:57;;;;;;;17.98;11.18;;;3.20;99.90;;;;;;5074146;28;20501;-68
2023/01/23 07:35:24;;;;;;;18.08;11.77;;;3.10;99.90;;;;;;5075321;28;20075;-68
2023/01/23 07:37:50;;;;;;;15.65;10.73;;;3.10;99.90;;;;;;5074088;28;20170;-68
2023/01/23 07:40:16;;;;;;;12.30;10.32;;;3.20;99.90;;;;;;5073719;28;20119;-69
2023/01/23 07:42:41;;;;;;;16.70;10.77;;;3.20;99.90;;;;;;5074018;28;20099;-69
2023/01/23 07:45:08;;;;;;;12.82;11.18;;;3.20;99.90;;;;;;5073971;28;20056;-69
2023/01/23 07:47:40;;;;;;;14.18;10.52;;;3.10;99.90;;;;;;5073645;28;20143;-69
2023/01/23 07:50:09;;;;;;;15.40;10.10;;;3.10;99.90;;;;;;5073684;28;20067;-69
2023/01/23 07:52:35;;;;;;;14.75;10.27;;;3.10;99.90;;;;;;5073793;28;20044;-69
2023/01/23 07:55:00;;;;;;;16.40;11.23;;;3.20;99.90;;;;;;5073568;28;20394;-69
2023/01/23 07:57:26;;;;;;;15.57;10.50;;;3.20;99.90;;;;;;5074663;28;20418;-69
2023/01/23 07:59:52;;;;;;;15.73;10.57;;;3.20;99.90;;;;;;5073345;28;20037;-69
2023/01/23 08:02:17;;;;;;;16.38;11.10;;;3.20;99.90;;;;;;5073310;28;20040;-69
2023/01/23 08:04:43;;;;;;;16.55;11.05;;;3.20;99.90;;;;;;5073277;28;20086;-69
2023/01/23 08:07:08;;;;;;;16.27;10.23;;;3.20;99.90;;;;;;5073268;28;20098;-69
2023/01/23 08:09:34;;;;;;;13.95;10.10;;;3.20;99.90;;;;;;5073558;28;20036;-69
2023/01/23 08:11:59;;;;;;;15.38;10.73;;;3.30;99.90;;;;;;5056479;28;20078;-69
2023/01/23 08:14:25;;;;;;;16.67;11.60;;;3.30;99.90;;;;;;5073200;28;20049;-69
2023/01/23 08:16:51;;;;;;;14.80;9.77;;;3.30;99.90;;;;;;5073010;28;20048;-68
2023/01/23 08:19:18;;;;;;;16.77;10.15;;;3.30;99.90;;;;;;5074175;28;20051;-68
2023/01/23 08:21:44;;;;;;;15.18;9.57;;;3.30;99.90;;;;;;5074179;28;20501;-68
2023/01/23 08:24:13;;;;;;;13.00;10.15;;;3.30;99.90;;;;;;5072909;28;20044;-68
2023/01/23 08:26:39;;;;;;;13.70;9.80;;;3.30;99.90;;;;;;5072834;28;20075;-68
2023/01/23 08:29:05;;;;;;;12.50;10.13;;;3.30;99.90;;;;;;5072707;28;20070;-69
2023/01/23 08:31:30;;;;;;;14.65;9.65;;;3.30;99.90;;;;;;5072769;28;20116;-69
2023/01/23 08:33:56;;;;;;;11.27;8.77;;;3.30;99.90;;;;;;5073876;28;20044;-69
2023/01/23 08:36:22;;;;;;;18.10;9.82;;;3.40;99.90;;;;;;5073208;28;20494;-69
2023/01/23 08:38:48;;;;;;;14.30;9.70;;;3.40;99.90;;;;;;5072533;28;20513;-69
2023/01/23 08:41:14;;;;;;;13.43;9.70;;;3.30;99.90;;;;;;5072575;28;20078;-69
2023/01/23 08:43:43;;;;;;;14.27;9.25;;;3.40;99.90;;;;;;5072489;28;20094;-69
2023/01/23 08:46:09;;;;;;;14.90;10.55;;;3.40;99.90;;;;;;5072472;28;20094;-68
2023/01/23 08:48:35;;;;;;;12.50;8.98;;;3.40;99.90;;;;;;5072347;28;20056;-68
2023/01/23 08:51:07;;;;;;;14.00;9.70;;;3.50;99.90;;;;;;5072265;28;20044;-68
2023/01/23 08:53:33;;;;;;;16.38;9.10;;;3.50;99.90;;;;;;5072659;28;20036;-68
2023/01/23 08:56:05;;;;;;;13.90;8.68;;;3.50;99.90;;;;;;5072599;28;20132;-69
2023/01/23 08:58:31;;;;;;;12.00;8.23;;;3.40;99.90;;;;;;5072259;28;20131;-69
2023/01/23 09:00:57;;;;;;;13.20;8.73;;;3.50;99.90;;;;;;5073526;28;20127;-69
2023/01/23 09:03:23;;;;;;;11.45;8.13;;;3.50;99.90;;;;;;5072172;28;20565;-69
2023/01/23 09:05:49;;;;;;;15.55;9.68;;;3.50;99.90;;;;;;5072185;28;20123;-69
2023/01/23 09:08:15;;;;;;;12.60;9.45;;;3.60;99.90;;;;;;5072150;28;20044;-69
2023/01/23 09:10:40;;;;;;;13.52;8.13;;;3.60;99.90;;;;;;5072286;28;20051;-69
2023/01/23 09:13:06;;;;;;;13.70;8.60;;;3.50;99.90;;;;;;5072370;28;20412;-69
2023/01/23 09:15:31;;;;;;;12.52;8.65;;;3.60;99.90;;;;;;5071965;28;20493;-69
2023/01/23 09:17:57;;;;;;;11.23;7.78;;;3.60;99.90;;;;;;5072004;28;20036;-69
2023/01/23 09:20:27;;;;;;;9.52;8.43;;;3.60;99.90;;;;;;5073025;28;20044;-69
2023/01/23 09:22:53;;;;;;;13.68;9.30;;;3.60;99.90;;;;;;5071987;28;20094;-69
2023/01/23 09:25:19;;;;;;;13.55;8.48;;;3.60;99.90;;;;;;5072160;28;20052;-69
2023/01/23 09:27:45;;;;;;;11.35;8.50;;;3.60;99.90;;;;;;5073767;28;20040;-68
2023/01/23 09:30:11;;;;;;;14.38;8.25;;;3.70;99.90;;;;;;5071902;28;20029;-68
2023/01/23 09:32:36;;;;;;;9.82;6.82;;;3.60;99.90;;;;;;5071831;28;20047;-68
2023/01/23 09:35:03;;;;;;;13.73;7.43;;;3.70;99.90;;;;;;5071750;28;20129;-68
2023/01/23 09:37:58;;;;;;;10.25;7.15;;;3.80;99.90;;;;;;5071746;28;20037;-68
2023/01/23 09:40:21;;;;;;;12.52;7.43;;;3.80;99.90;;;;;;5072002;28;20044;-68
2023/01/23 09:42:49;;;;;;;11.02;7.65;;;3.70;99.90;;;;;;5071786;28;20129;-68
2023/01/23 09:45:19;;;;;;;12.20;7.55;;;3.80;99.90;;;;;;5071752;28;20048;-68
2023/01/23 09:47:48;;;;;;;13.32;6.88;;;3.80;99.90;;;;;;5072276;28;20468;-68
2023/01/23 09:50:20;;;;;;;10.15;6.45;;;3.80;99.90;;;;;;5071501;28;20045;-68
2023/01/23 09:52:54;;;;;;;12.85;7.20;;;3.90;99.90;;;;;;5071678;28;20115;-68
2023/01/23 09:55:48;;;;;;;10.80;6.20;;;3.80;99.90;;;;;;5071672;28;20072;-68
2023/01/23 09:58:19;;;;;;;9.27;6.40;;;3.90;99.90;;;;;;5071909;28;20119;-68
2023/01/23 10:00:46;;;;;;;9.05;5.90;;;3.90;99.90;;;;;;5071509;28;20072;-68
2023/01/23 10:03:14;;;;;;;8.20;5.50;;;3.90;99.90;;;;;;5071828;28;20112;-68
2023/01/23 10:06:11;;;;;;;8.82;6.53;;;3.80;99.90;;;;;;5071522;28;20040;-68
2023/01/23 10:08:57;;;;;;;9.43;6.38;;;3.90;99.90;;;;;;5071449;28;20578;-68
2023/01/23 10:11:45;;;;;;;10.43;6.07;;;3.90;99.90;;;;;;5071522;28;20037;-68
2023/01/23 10:14:31;;;;;;;9.63;6.38;;;3.90;99.90;;;;;;5071611;28;20048;-68
2023/01/23 10:16:56;;;;;;;9.02;5.40;;;3.90;99.90;;;;;;5071714;28;20052;-68
2023/01/23 10:19:31;;;;;;;10.07;5.72;;;3.90;99.90;;;;;;5071575;28;20051;-69
2023/01/23 10:22:14;;;;;;;8.77;5.72;;;4.00;99.90;;;;;;5071300;28;20505;-69
2023/01/23 10:24:50;;;;;;;8.45;5.35;;;4.00;99.90;;;;;;5071597;28;20135;-69
2023/01/23 10:27:19;;;;;;;7.53;5.03;;;4.00;99.90;;;;;;5071380;28;20076;-69
2023/01/23 10:30:01;;;;;;;9.48;5.50;;;4.00;99.90;;;;;;5071476;28;20153;-69
2023/01/23 10:32:30;;;;;;;7.90;4.80;;;4.00;99.90;;;;;;5073630;28;20128;-69
2023/01/23 10:35:10;;;;;;;8.20;5.53;;;4.00;99.90;;;;;;5075332;28;20094;-68
2023/01/23 10:37:35;;;;;;;7.50;5.10;;;4.10;99.90;;;;;;5075113;28;20043;-69
2023/01/23 10:40:06;;;;;;;6.35;5.03;;;4.00;99.90;;;;;;5075095;28;20041;-69
2023/01/23 10:42:32;;;;;;;8.57;5.15;;;4.00;99.90;;;;;;5074896;28;20068;-69
2023/01/23 10:44:58;;;;;;;10.57;6.05;;;4.00;99.90;;;;;;5074814;28;20129;-69
2023/01/23 10:47:42;;;;;;;8.27;5.80;;;4.00;99.90;;;;;;5074785;28;20047;-69
2023/01/23 10:50:09;;;;;;;11.48;5.72;;;4.10;99.90;;;;;;5074550;28;20408;-69
2023/01/23 10:52:38;;;;;;;8.20;5.72;;;4.10;99.90;;;;;;5074711;28;20048;-69
2023/01/23 10:55:32;;;;;;;8.80;6.15;;;4.10;99.90;;;;;;5074829;28;20493;-69
2023/01/23 10:58:02;;;;;;;10.43;5.97;;;4.10;99.90;;;;;;5072680;28;20501;-69
2023/01/23 11:00:37;;;;;;;8.85;5.80;;;4.10;99.90;;;;;;5074631;28;20072;-69
2023/01/23 11:03:23;;;;;;;8.13;5.43;;;4.10;99.90;;;;;;5074453;28;20048;-69
2023/01/23 11:06:03;;;;;;;9.32;5.38;;;4.10;99.90;;;;;;5067687;28;20131;-69
2023/01/23 11:08:37;;;;;;;7.30;5.57;;;4.10;99.90;;;;;;5074403;28;20048;-68
2023/01/23 11:11:14;;;;;;;11.23;6.53;;;4.10;99.90;;;;;;5074349;28;20048;-69
2023/01/23 11:13:42;;;;;;;7.10;5.60;;;4.10;99.90;;;;;;5074281;28;20072;-69
2023/01/23 11:16:20;;;;;;;8.55;6.00;;;4.20;99.90;;;;;;5075738;28;20155;-69
2023/01/23 11:19:08;;;;;;;8.18;6.13;;;4.10;99.90;;;;;;5074302;28;20044;-69
2023/01/23 11:21:55;;;;;;;10.48;5.93;;;4.20;99.90;;;;;;5074552;28;20086;-69
2023/01/23 11:24:23;;;;;;;7.63;5.90;;;4.20;99.90;;;;;;5074445;28;20040;-69
2023/01/23 11:26:59;;;;;;;9.25;5.90;;;4.10;99.90;;;;;;5074118;28;20048;-69
2023/01/23 11:29:27;;;;;;;10.27;5.70;;;4.20;99.90;;;;;;5074029;28;20490;-69
2023/01/23 11:32:04;;;;;;;9.98;6.80;;;4.10;99.90;;;;;;5075221;28;20041;-69
2023/01/23 11:34:39;;;;;;;8.98;5.43;;;4.20;99.90;;;;;;5073908;28;20044;-69
2023/01/23 11:37:23;;;;;;;8.32;5.97;;;4.20;99.90;;;;;;5074197;28;20075;-69
2023/01/23 11:40:03;;;;;;;11.45;6.95;;;4.20;99.90;;;;;;5073798;28;20040;-69
2023/01/23 11:42:29;;;;;;;10.77;7.10;;;4.20;99.90;;;;;;5073387;28;20409;-69
2023/01/23 11:44:58;;;;;;;12.95;7.13;;;4.20;99.90;;;;;;5073162;28;20051;-69
2023/01/23 11:47:40;;;;;;;10.02;6.40;;;4.10;99.90;;;;;;5073992;28;20063;-68
2023/01/23 11:50:11;;;;;;;8.85;6.28;;;4.10;99.90;;;;;;5074683;28;20040;-68
2023/01/23 11:52:47;;;;;;;8.48;6.00;;;4.20;99.90;;;;;;5073666;28;20048;-68
2023/01/23 11:56:00;;;;;;;8.32;6.07;;;4.10;99.90;;;;;;5073563;28;20404;-68
2023/01/23 11:58:56;;;;;;;8.80;5.97;;;4.20;99.90;;;;;;5036210;28;20123;-69
2023/01/23 12:01:48;;;;;;;10.10;7.30;;;4.20;99.90;;;;;;5035993;28;20494;-69
2023/01/23 12:04:35;;;;;;;12.00;7.10;;;4.10;99.90;;;;;;5067524;28;20053;-69
2023/01/23 12:07:17;;;;;;;10.07;7.30;;;4.20;99.90;;;;;;5073580;28;20040;-69
2023/01/23 12:10:22;;;;;;;10.73;8.18;;;4.10;99.90;;;;;;5073166;28;20447;-69
2023/01/23 12:13:01;;;;;;;12.10;7.68;;;4.20;99.90;;;;;;5073211;28;20075;-69
2023/01/23 12:15:54;;;;;;;9.10;7.30;;;4.10;99.90;;;;;;5073021;28;20059;-69
2023/01/23 12:18:42;;;;;;;8.87;6.67;;;4.20;99.90;;;;;;5073101;28;20079;-69
2023/01/23 12:21:11;;;;;;;9.30;7.05;;;4.20;99.90;;;;;;5073305;28;20048;-69
2023/01/23 12:23:57;;;;;;;10.63;7.85;;;4.20;99.90;;;;;;5073209;28;20053;-69
2023/01/23 12:26:24;;;;;;;10.93;7.13;;;4.20;99.90;;;;;;5074220;28;20076;-69
2023/01/23 12:28:56;;;;;;;10.00;6.95;;;4.20;99.90;;;;;;5073132;28;20127;-69
2023/01/23 12:31:24;;;;;;;9.10;6.93;;;4.20;99.90;;;;;;5073094;28;20049;-69
2023/01/23 12:34:18;;;;;;;11.07;7.90;;;4.20;99.90;;;;;;5073031;28;20044;-69
2023/01/23 12:37:05;;;;;;;;;;;4.30;99.90;;;;;;5073308;28;20044;-69
2023/01/23 12:40:15;;;;;;;8.55;7.10;;;4.20;99.90;;;;;;5072681;28;20019;-69
2023/01/23 12:42:51;;;;;;;10.02;7.22;;;4.20;99.90;;;;;;5035382;28;20057;-69
2023/01/23 12:45:23;;;;;;;10.35;7.68;;;4.20;99.90;;;;;;5069797;28;20056;-69
2023/01/23 12:48:05;;;;;;;9.85;7.53;;;4.30;99.90;;;;;;5072478;28;20040;-69
2023/01/23 12:50:38;;;;;;;10.32;7.68;;;4.30;99.90;;;;;;5072535;28;20083;-69
2023/01/23 12:53:12;;;;;;;11.18;8.00;;;4.30;99.90;;;;;;5072640;28;20515;-69
2023/01/23 12:55:51;;;;;;;9.68;7.88;;;4.40;99.90;;;;;;5071943;28;20040;-69
2023/01/23 12:58:18;;;;;;;12.23;9.05;;;4.40;99.90;;;;;;5072397;28;20493;-69
2023/01/23 13:00:56;;;;;;;13.82;8.85;;;4.40;99.90;;;;;;5073715;28;20158;-69
2023/01/23 13:03:52;;;;;;;13.38;8.75;;;4.40;99.90;;;;;;5072239;28;20040;-69
2023/01/23 13:06:41;;;;;;;10.88;8.38;;;4.40;99.90;;;;;;5072466;28;20061;-69